createdAt,value
2022-12-16T00:01:50.889Z,28.83
2022-12-16T00:04:20.192Z,27.13
2022-12-16T00:06:48.990Z,27.90
2022-12-16T00:09:17.125Z,28.30
2022-12-16T00:11:46.489Z,26.63
2022-12-16T00:14:14.498Z,27.57
2022-12-16T00:16:42.549Z,26.53
2022-12-16T00:19:10.848Z,27.13
2022-12-16T00:21:38.776Z,26.47
2022-12-16T00:24:06.906Z,26.93
2022-12-16T00:26:34.878Z,27.83
2022-12-16T00:29:05.446Z,25.90
2022-12-16T00:31:34.342Z,26.27
2022-12-16T00:34:02.354Z,25.70
2022-12-16T00:36:30.305Z,25.53
2022-12-16T00:38:58.333Z,25.40
2022-12-16T00:41:26.355Z,25.40
2022-12-16T00:43:54.693Z,25.73
2022-12-16T00:46:24.165Z,26.90
2022-12-16T00:48:52.237Z,26.07
2022-12-16T00:51:20.230Z,25.10
2022-12-16T00:53:48.284Z,31.27
2022-12-16T00:56:16.477Z,38.50
2022-12-16T00:58:44.821Z,38.60
2022-12-16T01:01:13.580Z,40.67
2022-12-16T01:03:43.176Z,42.40
2022-12-16T01:06:12.932Z,42.20
2022-12-16T01:08:48.893Z,43.80
2022-12-16T01:11:18.164Z,43.80
2022-12-16T01:13:46.387Z,43.63
2022-12-16T01:16:15.404Z,43.23
2022-12-16T01:18:44.864Z,42.50
2022-12-16T01:21:39.519Z,43.93
2022-12-16T01:24:08.068Z,45.97
2022-12-16T01:26:36.771Z,45.50
2022-12-16T01:29:04.772Z,44.13
2022-12-16T01:31:33.006Z,43.77
2022-12-16T01:34:03.098Z,44.10
2022-12-16T01:36:31.108Z,43.33
2022-12-16T01:38:59.076Z,43.67
2022-12-16T01:41:27.162Z,42.67
2022-12-16T01:44:14.435Z,42.57
2022-12-16T01:46:44.047Z,42.37
2022-12-16T01:49:23.167Z,41.30
2022-12-16T01:51:52.570Z,41.00
2022-12-16T01:54:28.767Z,40.93
2022-12-16T01:57:00.589Z,42.07
2022-12-16T01:59:31.559Z,39.33
2022-12-16T02:02:01.119Z,40.40
2022-12-16T02:04:30.854Z,38.87
2022-12-16T02:07:00.381Z,40.60
2022-12-16T02:09:28.545Z,39.37
2022-12-16T02:12:20.563Z,40.10
2022-12-16T02:15:09.015Z,40.40
2022-12-16T02:17:42.702Z,40.70
2022-12-16T02:20:39.414Z,38.80
2022-12-16T02:23:35.982Z,39.93
2022-12-16T02:26:22.142Z,40.73
2022-12-16T02:29:14.554Z,40.87
2022-12-16T02:31:53.905Z,39.70
2022-12-16T02:34:29.582Z,39.87
2022-12-16T02:37:11.791Z,39.17
2022-12-16T02:39:43.904Z,38.63
2022-12-16T02:42:17.618Z,39.90
2022-12-16T02:44:54.446Z,40.07
2022-12-16T02:47:24.818Z,39.17
2022-12-16T02:49:55.098Z,39.10
2022-12-16T02:52:26.310Z,39.47
2022-12-16T02:54:57.862Z,38.43
2022-12-16T02:57:47.534Z,38.50
2022-12-16T03:00:18.971Z,38.87
2022-12-16T03:02:55.415Z,38.33
2022-12-16T03:05:29.085Z,37.50
2022-12-16T03:08:00.394Z,39.10
2022-12-16T03:10:32.671Z,39.07
2022-12-16T03:13:02.952Z,39.53
2022-12-16T03:15:33.846Z,40.10
2022-12-16T03:18:06.410Z,40.47
2022-12-16T03:20:38.389Z,39.97
2022-12-16T03:23:21.113Z,38.97
2022-12-16T03:25:51.841Z,42.83
2022-12-16T03:28:30.186Z,42.07
2022-12-16T03:31:05.186Z,41.30
2022-12-16T03:33:40.414Z,41.13
2022-12-16T03:36:14.176Z,41.80
2022-12-16T03:38:44.945Z,40.30
2022-12-16T03:41:14.479Z,42.07
2022-12-16T03:43:42.690Z,42.33
2022-12-16T03:46:11.571Z,41.40
2022-12-16T03:48:47.890Z,41.27
2022-12-16T03:51:15.946Z,42.83
2022-12-16T03:53:44.163Z,42.63
2022-12-16T03:56:12.529Z,43.70
2022-12-16T03:58:41.092Z,41.90
2022-12-16T04:01:10.993Z,41.70
2022-12-16T04:03:40.444Z,42.10
2022-12-16T04:06:09.006Z,41.43
2022-12-16T04:08:37.079Z,40.97
2022-12-16T04:11:22.701Z,42.80
2022-12-16T04:14:08.255Z,41.33
2022-12-16T04:16:54.156Z,41.80
2022-12-16T04:19:45.356Z,42.10
2022-12-16T04:22:34.155Z,41.70
2022-12-16T04:25:07.438Z,41.67
2022-12-16T04:27:36.943Z,44.13
2022-12-16T04:30:20.842Z,42.93
2022-12-16T04:33:10.780Z,43.13
2022-12-16T04:35:57.580Z,43.20
2022-12-16T04:38:43.391Z,43.70
2022-12-16T04:41:29.054Z,43.63
2022-12-16T04:44:17.864Z,44.17
2022-12-16T04:47:03.727Z,45.00
2022-12-16T04:49:49.745Z,45.00
2022-12-16T04:52:38.326Z,44.77
2022-12-16T04:55:25.490Z,44.40
2022-12-16T04:58:11.419Z,44.57
2022-12-16T05:00:57.197Z,46.30
2022-12-16T05:03:39.432Z,47.17
2022-12-16T05:06:25.572Z,46.90
2022-12-16T05:09:12.192Z,45.90
2022-12-16T05:12:08.957Z,48.70
2022-12-16T05:14:54.399Z,48.20
2022-12-16T05:17:40.317Z,47.03
2022-12-16T05:20:26.523Z,48.80
2022-12-16T05:23:15.342Z,46.93
2022-12-16T05:26:02.675Z,48.60
2022-12-16T05:28:49.724Z,48.97
2022-12-16T05:31:35.293Z,48.53
2022-12-16T05:34:20.737Z,46.47
2022-12-16T05:37:06.257Z,47.67
2022-12-16T05:39:52.070Z,48.67
2022-12-16T05:42:38.751Z,48.93
2022-12-16T05:45:24.279Z,47.87
2022-12-16T05:48:09.793Z,48.70
2022-12-16T05:51:00.667Z,47.03
2022-12-16T05:53:46.310Z,48.77
2022-12-16T05:56:31.882Z,48.27
2022-12-16T05:59:19.318Z,47.83
2022-12-16T06:02:05.480Z,46.40
2022-12-16T06:04:51.159Z,48.13
2022-12-16T06:07:36.667Z,47.83
2022-12-16T06:10:22.466Z,48.27
2022-12-16T06:13:08.323Z,48.20
2022-12-16T06:15:54.996Z,47.50
2022-12-16T06:18:40.215Z,47.53
2022-12-16T06:21:26.031Z,48.30
2022-12-16T06:24:11.855Z,47.63
2022-12-16T06:26:57.557Z,47.43
2022-12-16T06:29:57.575Z,46.73
2022-12-16T06:32:44.396Z,48.57
2022-12-16T06:35:29.250Z,47.47
2022-12-16T06:38:14.738Z,47.73
2022-12-16T06:41:00.105Z,48.33
2022-12-16T06:43:45.748Z,47.93
2022-12-16T06:46:34.640Z,47.90
2022-12-16T06:49:21.369Z,49.17
2022-12-16T06:52:06.799Z,49.67
2022-12-16T06:54:53.346Z,48.53
2022-12-16T06:57:39.414Z,49.30
2022-12-16T07:00:26.160Z,48.17
2022-12-16T07:03:17.484Z,49.47
2022-12-16T07:06:04.290Z,46.33
2022-12-16T07:08:52.096Z,47.57
2022-12-16T07:11:37.597Z,47.67
2022-12-16T07:14:23.387Z,47.40
2022-12-16T07:17:12.403Z,46.40
2022-12-16T07:20:02.623Z,46.67
2022-12-16T07:22:58.522Z,45.60
2022-12-16T07:25:48.446Z,46.60
2022-12-16T07:28:34.050Z,46.67
2022-12-16T07:31:20.179Z,46.77
2022-12-16T07:34:20.267Z,46.23
2022-12-16T07:37:05.897Z,44.73
2022-12-16T07:39:55.461Z,44.97
2022-12-16T07:42:42.823Z,45.03
2022-12-16T07:45:29.333Z,46.87
2022-12-16T07:48:17.606Z,44.57
2022-12-16T07:51:03.175Z,47.40
2022-12-16T07:53:49.668Z,46.87
2022-12-16T07:56:36.703Z,46.23
2022-12-16T07:59:22.670Z,44.03
2022-12-16T08:02:08.401Z,45.33
2022-12-16T08:04:56.235Z,44.30
2022-12-16T08:07:41.768Z,42.97
2022-12-16T08:10:27.757Z,41.43
2022-12-16T08:13:25.328Z,42.40
2022-12-16T08:16:11.671Z,43.37
2022-12-16T08:18:56.909Z,42.30
2022-12-16T08:21:42.475Z,41.57
2022-12-16T08:24:28.060Z,41.27
2022-12-16T08:27:13.853Z,41.70
2022-12-16T08:30:00.866Z,40.60
2022-12-16T08:32:46.644Z,40.33
2022-12-16T08:35:32.516Z,40.07
2022-12-16T08:38:18.645Z,38.80
2022-12-16T08:41:04.682Z,38.40
2022-12-16T08:43:51.126Z,38.80
2022-12-16T08:46:41.145Z,36.53
2022-12-16T08:49:27.530Z,37.40
2022-12-16T08:52:13.074Z,36.07
2022-12-16T08:54:58.662Z,37.27
2022-12-16T08:57:44.070Z,37.80
2022-12-16T09:00:31.372Z,35.27
2022-12-16T09:03:18.818Z,35.37
2022-12-16T09:06:03.525Z,35.17
2022-12-16T09:08:49.464Z,35.63
2022-12-16T09:11:35.434Z,34.67
2022-12-16T09:14:24.600Z,34.73
2022-12-16T09:17:10.105Z,35.50
2022-12-16T09:19:57.293Z,35.60
2022-12-16T09:22:44.154Z,34.13
2022-12-16T09:25:30.540Z,34.37
2022-12-16T09:28:15.989Z,33.27
2022-12-16T09:31:01.592Z,35.73
2022-12-16T09:33:47.354Z,35.97
2022-12-16T09:36:34.700Z,37.70
2022-12-16T09:39:20.281Z,35.80
2022-12-16T09:42:19.991Z,35.97
2022-12-16T09:45:16.023Z,35.83
2022-12-16T09:48:14.053Z,35.70
2022-12-16T09:51:02.490Z,34.53
2022-12-16T09:53:55.045Z,36.87
2022-12-16T09:56:46.118Z,35.60
2022-12-16T09:59:34.044Z,36.37
2022-12-16T10:02:34.774Z,34.43
2022-12-16T10:05:20.497Z,34.40
2022-12-16T10:08:19.090Z,36.47
2022-12-16T10:11:13.624Z,37.27
2022-12-16T10:14:15.932Z,36.47
2022-12-16T10:17:10.832Z,36.90
2022-12-16T10:20:09.423Z,36.43
2022-12-16T10:23:01.733Z,37.17
2022-12-16T10:25:53.603Z,36.83
2022-12-16T10:28:57.203Z,37.87
2022-12-16T10:31:44.915Z,36.80
2022-12-16T10:34:34.003Z,33.77
2022-12-16T10:37:21.288Z,34.20
2022-12-16T10:40:10.913Z,33.93
2022-12-16T10:43:03.750Z,34.20
2022-12-16T10:45:56.194Z,33.20
2022-12-16T10:48:51.431Z,33.60
2022-12-16T10:51:45.865Z,32.70
2022-12-16T10:54:45.513Z,34.17
2022-12-16T10:57:45.880Z,33.60
2022-12-16T11:00:34.851Z,32.63
2022-12-16T11:03:39.417Z,33.80
2022-12-16T11:06:29.062Z,33.63
2022-12-16T11:09:14.586Z,34.17
2022-12-16T11:12:00.149Z,36.00
2022-12-16T11:15:05.722Z,33.17
2022-12-16T11:17:53.116Z,31.17
2022-12-16T11:20:41.686Z,32.63
2022-12-16T11:23:32.441Z,32.40
2022-12-16T11:26:30.427Z,32.00
2022-12-16T11:29:29.610Z,31.43
2022-12-16T11:32:35.613Z,33.93
2022-12-16T11:35:23.404Z,32.73
2022-12-16T11:38:12.187Z,32.47
2022-12-16T11:40:59.132Z,32.03
2022-12-16T11:43:47.646Z,31.27
2022-12-16T11:46:42.935Z,32.37
2022-12-16T11:49:35.984Z,32.53
2022-12-16T11:52:39.722Z,32.00
2022-12-16T11:56:10.865Z,34.77
2022-12-16T11:59:01.142Z,32.43
2022-12-16T12:01:50.830Z,32.07
2022-12-16T12:04:37.247Z,47.70
2022-12-16T12:07:53.607Z,31.70
2022-12-16T12:11:08.260Z,32.07
2022-12-16T12:14:04.963Z,32.80
2022-12-16T12:17:00.916Z,30.57
2022-12-16T12:19:57.966Z,31.17
2022-12-16T12:22:52.505Z,31.17
2022-12-16T12:25:51.573Z,32.17
2022-12-16T12:28:54.265Z,31.13
2022-12-16T12:31:52.798Z,31.10
2022-12-16T12:34:47.592Z,31.60
2022-12-16T12:37:40.553Z,30.13
2022-12-16T12:40:43.491Z,31.70
2022-12-16T12:43:43.446Z,32.33
2022-12-16T12:46:39.722Z,32.13
2022-12-16T12:49:33.291Z,31.40
2022-12-16T12:52:26.460Z,30.80
2022-12-16T12:55:16.312Z,32.53
2022-12-16T12:58:04.365Z,32.47
2022-12-16T13:00:55.901Z,31.37
2022-12-16T13:03:51.668Z,32.23
2022-12-16T13:06:38.500Z,29.87
2022-12-16T13:09:42.091Z,30.40
2022-12-16T13:12:46.363Z,28.97
2022-12-16T13:15:52.426Z,29.00
2022-12-16T13:18:47.399Z,30.23
2022-12-16T13:22:01.836Z,30.40
2022-12-16T13:25:05.389Z,29.27
2022-12-16T13:28:09.132Z,31.57
2022-12-16T13:30:54.786Z,30.87
2022-12-16T13:33:50.221Z,31.50
2022-12-16T13:36:37.585Z,31.50
2022-12-16T13:39:43.839Z,32.83
2022-12-16T13:43:05.857Z,33.77
2022-12-16T13:45:56.803Z,34.00
2022-12-16T13:48:57.036Z,33.47
2022-12-16T13:52:25.413Z,32.93
2022-12-16T13:55:24.344Z,34.40
2022-12-16T13:58:19.821Z,35.00
2022-12-16T14:01:16.786Z,37.63
2022-12-16T14:04:07.774Z,35.00
2022-12-16T14:06:55.451Z,34.33
2022-12-16T14:09:56.642Z,34.87
2022-12-16T14:13:03.156Z,34.23
2022-12-16T14:15:54.049Z,33.70
2022-12-16T14:18:50.194Z,37.67
2022-12-16T14:21:44.245Z,36.33
2022-12-16T14:24:36.626Z,35.93
2022-12-16T14:27:30.967Z,37.73
2022-12-16T14:30:16.226Z,34.00
2022-12-16T14:33:01.759Z,35.70
2022-12-16T14:35:47.334Z,36.87
2022-12-16T14:38:46.590Z,34.70
2022-12-16T14:41:35.166Z,37.20
2022-12-16T14:44:24.130Z,35.13
2022-12-16T14:47:10.565Z,34.93
2022-12-16T14:50:08.625Z,35.90
2022-12-16T14:52:54.493Z,35.33
2022-12-16T14:55:47.161Z,36.20
2022-12-16T14:58:36.594Z,36.20
2022-12-16T15:01:34.780Z,36.10
2022-12-16T15:04:27.592Z,36.60
2022-12-16T15:07:14.659Z,36.67
2022-12-16T15:10:03.957Z,38.03
2022-12-16T15:12:54.328Z,42.20
2022-12-16T15:15:51.077Z,38.17
2022-12-16T15:18:39.865Z,37.77
2022-12-16T15:21:26.566Z,36.83
2022-12-16T15:24:16.315Z,33.93
2022-12-16T15:27:02.093Z,35.30
2022-12-16T15:29:53.122Z,36.27
2022-12-16T15:32:48.479Z,34.37
2022-12-16T15:35:46.983Z,36.27
2022-12-16T15:38:41.071Z,37.83
2022-12-16T15:41:41.117Z,37.27
2022-12-16T15:44:36.728Z,37.90
2022-12-16T15:47:25.025Z,38.37
2022-12-16T15:50:10.705Z,38.10
2022-12-16T15:52:58.822Z,37.17
2022-12-16T15:55:50.398Z,38.33
2022-12-16T15:58:47.853Z,36.73
2022-12-16T16:01:36.026Z,37.93
2022-12-16T16:04:34.522Z,37.83
2022-12-16T16:07:20.102Z,37.47
2022-12-16T16:10:06.200Z,36.53
2022-12-16T16:12:51.981Z,37.50
2022-12-16T16:15:37.369Z,37.53
2022-12-16T16:18:28.795Z,36.70
2022-12-16T16:21:15.534Z,35.87
2022-12-16T16:24:01.048Z,39.40
2022-12-16T16:26:46.968Z,39.63
2022-12-16T16:29:32.433Z,39.13
2022-12-16T16:32:18.205Z,37.73
2022-12-16T16:35:03.671Z,37.30
2022-12-16T16:37:50.757Z,37.40
2022-12-16T16:40:45.577Z,37.07
2022-12-16T16:43:32.167Z,37.67
2022-12-16T16:46:17.609Z,40.47
2022-12-16T16:49:03.806Z,38.80
2022-12-16T16:51:49.285Z,36.97
2022-12-16T16:54:36.443Z,37.07
2022-12-16T16:57:22.373Z,36.47
2022-12-16T17:00:07.821Z,34.40
2022-12-16T17:02:53.451Z,34.70
2022-12-16T17:05:39.659Z,36.80
2022-12-16T17:08:24.925Z,38.90
2022-12-16T17:11:14.203Z,36.70
2022-12-16T17:13:59.800Z,35.13
2022-12-16T17:16:45.716Z,35.23
2022-12-16T17:19:31.341Z,33.80
2022-12-16T17:22:25.294Z,33.23
2022-12-16T17:25:10.774Z,33.10
2022-12-16T17:28:02.099Z,33.67
2022-12-16T17:30:48.116Z,34.93
2022-12-16T17:33:35.064Z,34.63
2022-12-16T17:36:27.207Z,35.37
2022-12-16T17:39:16.763Z,34.10
2022-12-16T17:42:06.017Z,35.07
2022-12-16T17:44:53.116Z,34.63
2022-12-16T17:47:38.735Z,35.17
2022-12-16T17:50:30.748Z,35.33
2022-12-16T17:53:17.737Z,35.67
2022-12-16T17:56:03.124Z,36.23
2022-12-16T17:58:50.651Z,37.30
2022-12-16T18:01:38.686Z,36.53
2022-12-16T18:04:39.003Z,36.80
2022-12-16T18:07:24.303Z,36.97
2022-12-16T18:10:10.309Z,37.80
2022-12-16T18:12:56.770Z,36.67
2022-12-16T18:15:42.482Z,35.60
2022-12-16T18:18:31.038Z,36.50
2022-12-16T18:21:26.410Z,35.67
2022-12-16T18:24:14.398Z,34.30
2022-12-16T18:27:00.206Z,34.57
2022-12-16T18:29:45.931Z,34.03
2022-12-16T18:32:35.047Z,33.57
2022-12-16T18:35:22.852Z,32.47
2022-12-16T18:38:12.137Z,33.77
2022-12-16T18:41:00.350Z,34.60
2022-12-16T18:43:45.865Z,34.23
2022-12-16T18:46:31.682Z,34.40
2022-12-16T18:49:17.259Z,35.37
2022-12-16T18:52:04.365Z,34.00
2022-12-16T18:54:49.512Z,33.77
2022-12-16T18:57:39.655Z,34.03
2022-12-16T19:00:51.140Z,34.40
2022-12-16T19:03:45.103Z,33.07
2022-12-16T19:06:30.675Z,33.27
2022-12-16T19:09:18.247Z,32.77
2022-12-16T19:12:03.854Z,32.77
2022-12-16T19:14:49.508Z,32.47
2022-12-16T19:17:34.808Z,31.27
2022-12-16T19:20:20.907Z,32.80
2022-12-16T19:23:06.486Z,31.90
2022-12-16T19:25:53.143Z,32.83
2022-12-16T19:28:39.239Z,31.53
2022-12-16T19:31:29.502Z,31.17
2022-12-16T19:34:32.679Z,30.60
2022-12-16T19:37:18.184Z,29.57
2022-12-16T19:40:03.517Z,30.47
2022-12-16T19:42:50.607Z,38.33
2022-12-16T19:45:37.327Z,45.70
2022-12-16T19:48:24.255Z,46.87
2022-12-16T19:51:15.857Z,32.63
2022-12-16T19:54:01.666Z,32.03
2022-12-16T19:56:49.689Z,31.90
2022-12-16T19:59:36.342Z,30.97
2022-12-16T20:02:22.095Z,33.40
2022-12-16T20:05:08.394Z,31.43
2022-12-16T20:11:00.184Z,31.83
2022-12-16T20:14:00.499Z,32.23
2022-12-16T20:16:48.069Z,33.43
2022-12-16T20:19:33.648Z,33.67
2022-12-16T20:22:19.212Z,33.73
2022-12-16T20:25:04.547Z,36.13
2022-12-16T20:27:50.255Z,35.27
2022-12-16T20:30:36.448Z,34.07
2022-12-16T20:33:23.594Z,36.37
2022-12-16T20:36:16.094Z,35.40
2022-12-16T20:39:01.922Z,33.80
2022-12-16T20:41:47.431Z,35.93
2022-12-16T20:44:33.472Z,35.17
2022-12-16T20:47:18.755Z,33.53
2022-12-16T20:50:06.590Z,33.60
2022-12-16T20:52:51.964Z,31.77
2022-12-16T20:55:37.600Z,31.47
2022-12-16T20:58:23.134Z,29.67
2022-12-16T21:01:10.810Z,34.63
2022-12-16T21:03:56.495Z,30.80
2022-12-16T21:06:42.985Z,37.47
2022-12-16T21:09:28.500Z,32.23
2022-12-16T21:12:17.596Z,33.43
2022-12-16T21:15:03.658Z,32.30
2022-12-16T21:17:48.924Z,33.10
2022-12-16T21:20:31.086Z,32.47
2022-12-16T21:23:23.376Z,31.53
2022-12-16T21:26:09.437Z,31.27
2022-12-16T21:28:56.096Z,32.47
2022-12-16T21:31:42.102Z,30.73
2022-12-16T21:34:28.108Z,28.47
2022-12-16T21:37:13.377Z,27.77
2022-12-16T21:40:00.110Z,29.00
2022-12-16T21:42:45.651Z,29.83
2022-12-16T21:45:32.072Z,27.17
2022-12-16T21:48:17.630Z,28.60
2022-12-16T21:51:09.884Z,27.90
2022-12-16T21:53:55.592Z,27.47
2022-12-16T21:56:44.032Z,27.33
2022-12-16T21:59:29.612Z,28.27
2022-12-16T22:02:15.260Z,26.77
2022-12-16T22:05:00.797Z,27.30
2022-12-16T22:07:46.405Z,27.97
2022-12-16T22:10:32.041Z,28.37
2022-12-16T22:13:19.257Z,28.93
2022-12-16T22:16:14.078Z,29.60
2022-12-16T22:19:02.878Z,28.10
2022-12-16T22:21:57.247Z,29.53
2022-12-16T22:24:42.912Z,30.27
2022-12-16T22:27:28.361Z,29.30
2022-12-16T22:30:15.415Z,30.70
2022-12-16T22:33:01.026Z,29.13
2022-12-16T22:35:49.476Z,31.90
2022-12-16T22:36:20.687Z,32.40
2022-12-16T22:38:34.778Z,30.93
2022-12-16T22:41:21.088Z,29.30
2022-12-16T22:44:06.628Z,30.53
2022-12-16T22:46:53.491Z,31.33
2022-12-16T22:49:41.609Z,29.33
2022-12-16T22:52:29.649Z,29.73
2022-12-16T22:55:15.081Z,28.93
2022-12-16T22:58:00.728Z,30.30
2022-12-16T23:00:59.067Z,29.60
2022-12-16T23:03:47.178Z,30.80
2022-12-16T23:06:33.062Z,30.67
2022-12-16T23:09:18.685Z,30.27
2022-12-16T23:12:03.901Z,30.67
2022-12-16T23:14:49.608Z,29.77
2022-12-16T23:17:35.197Z,30.50
2022-12-16T23:20:23.347Z,30.43
2022-12-16T23:23:08.743Z,31.97
2022-12-16T23:25:55.549Z,32.50
2022-12-16T23:28:42.448Z,30.80
2022-12-16T23:31:28.522Z,32.63
2022-12-16T23:34:14.059Z,33.10
2022-12-16T23:37:01.232Z,32.80
2022-12-16T23:39:46.506Z,34.13
2022-12-16T23:42:32.116Z,32.87
2022-12-16T23:45:17.339Z,33.23
2022-12-16T23:48:03.330Z,31.87
2022-12-16T23:50:48.865Z,32.50
2022-12-16T23:53:35.705Z,31.77
2022-12-16T23:56:21.517Z,31.20
2022-12-16T23:59:08.735Z,30.77
